sensor_id;sensor_type;location;lat;lon;timestamp;pressure;altitude;pressure_sealevel;temperature;humidity
81509;BME280;70930;52.412;13.554;2024-03-23T00:54:21;100340.16;;;8.12;95.13
81509;BME280;70930;52.412;13.554;2024-03-23T00:56:48;100315.34;;;8.21;94.07
81509;BME280;70930;52.412;13.554;2024-03-23T00:59:13;100335.00;;;8.27;93.94
81509;BME280;70930;52.412;13.554;2024-03-23T01:01:39;100322.59;;;8.27;94.22
81509;BME280;70930;52.412;13.554;2024-03-23T01:04:04;100308.06;;;8.23;94.09
81509;BME280;70930;52.412;13.554;2024-03-23T01:06:29;100318.28;;;8.43;94.38
81509;BME280;70930;52.412;13.554;2024-03-23T01:08:55;100318.47;;;8.41;93.83
81509;BME280;70930;52.412;13.554;2024-03-23T01:11:20;100316.28;;;8.45;93.56
81509;BME280;70930;52.412;13.554;2024-03-23T01:13:45;100315.47;;;8.44;93.53
81509;BME280;70930;52.412;13.554;2024-03-23T01:16:11;100315.34;;;8.38;93.47
81509;BME280;70930;52.412;13.554;2024-03-23T01:18:36;100323.38;;;8.52;92.85
81509;BME280;70930;52.412;13.554;2024-03-23T01:21:01;100307.88;;;8.41;92.88
81509;BME280;70930;52.412;13.554;2024-03-23T01:23:27;100319.13;;;8.35;92.41
81509;BME280;70930;52.412;13.554;2024-03-23T01:25:53;100311.50;;;8.40;91.81
81509;BME280;70930;52.412;13.554;2024-03-23T01:28:22;100309.22;;;8.37;92.41
81509;BME280;70930;52.412;13.554;2024-03-23T01:30:48;100316.63;;;8.50;91.85
81509;BME280;70930;52.412;13.554;2024-03-23T01:33:14;100306.63;;;8.60;90.85
81509;BME280;70930;52.412;13.554;2024-03-23T01:35:40;100294.44;;;8.51;92.76
81509;BME280;70930;52.412;13.554;2024-03-23T01:38:05;100275.66;;;8.69;91.07
81509;BME280;70930;52.412;13.554;2024-03-23T01:40:31;100267.94;;;8.59;93.95
81509;BME280;70930;52.412;13.554;2024-03-23T01:43:06;100259.22;;;8.50;93.42
81509;BME280;70930;52.412;13.554;2024-03-23T01:45:33;100255.22;;;8.54;93.78
81509;BME280;70930;52.412;13.554;2024-03-23T01:47:59;100251.28;;;8.50;93.00
81509;BME280;70930;52.412;13.554;2024-03-23T01:50:25;100225.69;;;8.43;94.59
81509;BME280;70930;52.412;13.554;2024-03-23T01:52:50;100237.63;;;8.30;93.80
81509;BME280;70930;52.412;13.554;2024-03-23T01:55:16;100246.56;;;8.60;92.65
81509;BME280;70930;52.412;13.554;2024-03-23T01:57:42;100238.25;;;8.41;94.09
81509;BME280;70930;52.412;13.554;2024-03-23T02:00:08;100248.59;;;8.58;93.68
81509;BME280;70930;52.412;13.554;2024-03-23T02:02:35;100256.81;;;8.64;92.61
81509;BME280;70930;52.412;13.554;2024-03-23T02:05:00;100248.19;;;8.70;91.83
81509;BME280;70930;52.412;13.554;2024-03-23T02:07:26;100241.88;;;8.71;91.99
81509;BME280;70930;52.412;13.554;2024-03-23T02:09:52;100238.06;;;8.73;92.68
81509;BME280;70930;52.412;13.554;2024-03-23T02:12:18;100239.44;;;8.69;91.92
81509;BME280;70930;52.412;13.554;2024-03-23T02:14:46;100257.91;;;8.77;91.82
81509;BME280;70930;52.412;13.554;2024-03-23T02:17:12;100254.84;;;8.66;92.06
81509;BME280;70930;52.412;13.554;2024-03-23T02:19:37;100253.25;;;8.48;93.55
81509;BME280;70930;52.412;13.554;2024-03-23T02:22:03;100252.34;;;8.64;92.68
81509;BME280;70930;52.412;13.554;2024-03-23T02:24:29;100221.31;;;8.58;92.95
81509;BME280;70930;52.412;13.554;2024-03-23T02:26:54;100231.50;;;8.69;91.84
81509;BME280;70930;52.412;13.554;2024-03-23T02:29:20;100231.44;;;8.46;94.98
81509;BME280;70930;52.412;13.554;2024-03-23T02:31:46;100214.94;;;8.36;95.25
81509;BME280;70930;52.412;13.554;2024-03-23T02:34:11;100232.75;;;8.50;94.50
81509;BME280;70930;52.412;13.554;2024-03-23T02:36:36;100236.56;;;8.48;94.55
81509;BME280;70930;52.412;13.554;2024-03-23T02:39:01;100221.78;;;8.62;94.05
81509;BME280;70930;52.412;13.554;2024-03-23T02:41:27;100211.25;;;8.53;93.61
81509;BME280;70930;52.412;13.554;2024-03-23T02:43:52;100215.59;;;8.69;93.03
81509;BME280;70930;52.412;13.554;2024-03-23T02:46:17;100216.09;;;8.73;92.32
81509;BME280;70930;52.412;13.554;2024-03-23T02:48:43;100203.81;;;8.72;92.66
81509;BME280;70930;52.412;13.554;2024-03-23T02:51:09;100207.25;;;8.80;92.08
81509;BME280;70930;52.412;13.554;2024-03-23T02:53:34;100192.06;;;8.74;92.85
81509;BME280;70930;52.412;13.554;2024-03-23T02:56:00;100191.72;;;8.77;92.56
81509;BME280;70930;52.412;13.554;2024-03-23T02:58:25;100164.78;;;8.74;92.62
81509;BME280;70930;52.412;13.554;2024-03-23T03:00:50;100168.19;;;8.59;93.35
81509;BME280;70930;52.412;13.554;2024-03-23T03:03:16;100175.13;;;8.60;94.04
81509;BME280;70930;52.412;13.554;2024-03-23T03:05:41;100179.59;;;8.60;94.18
81509;BME280;70930;52.412;13.554;2024-03-23T03:08:06;100177.06;;;8.67;92.84
81509;BME280;70930;52.412;13.554;2024-03-23T03:10:32;100176.59;;;8.63;92.85
81509;BME280;70930;52.412;13.554;2024-03-23T03:13:00;100173.59;;;8.43;93.74
81509;BME280;70930;52.412;13.554;2024-03-23T03:15:25;100175.34;;;8.51;93.16
81509;BME280;70930;52.412;13.554;2024-03-23T03:17:51;100175.00;;;8.54;93.41
81509;BME280;70930;52.412;13.554;2024-03-23T03:20:16;100172.84;;;8.57;92.29
81509;BME280;70930;52.412;13.554;2024-03-23T03:22:42;100170.59;;;8.46;93.30
81509;BME280;70930;52.412;13.554;2024-03-23T03:25:08;100164.44;;;8.54;93.29
81509;BME280;70930;52.412;13.554;2024-03-23T03:27:33;100160.69;;;8.40;93.46
81509;BME280;70930;52.412;13.554;2024-03-23T03:29:59;100151.31;;;8.38;93.95
81509;BME280;70930;52.412;13.554;2024-03-23T03:32:28;100143.31;;;8.46;93.68
81509;BME280;70930;52.412;13.554;2024-03-23T03:34:54;100147.66;;;8.07;93.98
81509;BME280;70930;52.412;13.554;2024-03-23T03:37:19;100146.03;;;8.29;93.50
81509;BME280;70930;52.412;13.554;2024-03-23T03:39:44;100151.53;;;8.20;94.57
81509;BME280;70930;52.412;13.554;2024-03-23T03:42:10;100149.56;;;8.22;94.37
81509;BME280;70930;52.412;13.554;2024-03-23T03:44:35;100153.06;;;8.14;93.79
81509;BME280;70930;52.412;13.554;2024-03-23T03:47:02;100143.50;;;8.05;95.70
81509;BME280;70930;52.412;13.554;2024-03-23T03:49:27;100139.28;;;8.27;94.66
81509;BME280;70930;52.412;13.554;2024-03-23T03:51:52;100130.44;;;8.11;95.03
81509;BME280;70930;52.412;13.554;2024-03-23T03:54:18;100129.91;;;8.16;94.55
81509;BME280;70930;52.412;13.554;2024-03-23T03:56:43;100143.13;;;8.16;94.76
81509;BME280;70930;52.412;13.554;2024-03-23T03:59:09;100143.66;;;8.11;95.26
81509;BME280;70930;52.412;13.554;2024-03-23T04:01:34;100144.09;;;7.92;96.63
81509;BME280;70930;52.412;13.554;2024-03-23T04:04:01;100138.13;;;7.98;96.50
81509;BME280;70930;52.412;13.554;2024-03-23T04:06:26;100137.88;;;8.08;95.72
81509;BME280;70930;52.412;13.554;2024-03-23T04:08:52;100131.50;;;8.02;95.83
81509;BME280;70930;52.412;13.554;2024-03-23T04:11:17;100131.78;;;8.07;95.62
81509;BME280;70930;52.412;13.554;2024-03-23T04:13:43;100113.78;;;8.03;96.20
81509;BME280;70930;52.412;13.554;2024-03-23T04:16:08;100108.84;;;8.00;94.97
81509;BME280;70930;52.412;13.554;2024-03-23T04:18:36;100110.97;;;8.04;96.03
81509;BME280;70930;52.412;13.554;2024-03-23T04:21:02;100099.91;;;8.01;96.61
81509;BME280;70930;52.412;13.554;2024-03-23T04:23:28;100109.03;;;7.98;96.32
81509;BME280;70930;52.412;13.554;2024-03-23T04:25:53;100106.22;;;8.00;96.50
81509;BME280;70930;52.412;13.554;2024-03-23T04:28:19;100110.66;;;7.99;96.49
81509;BME280;70930;52.412;13.554;2024-03-23T04:30:44;100110.50;;;8.01;97.22
81509;BME280;70930;52.412;13.554;2024-03-23T04:33:09;100109.66;;;7.69;97.67
81509;BME280;70930;52.412;13.554;2024-03-23T04:35:35;100108.63;;;7.39;98.71
81509;BME280;70930;52.412;13.554;2024-03-23T04:38:00;100108.44;;;7.41;99.29
81509;BME280;70930;52.412;13.554;2024-03-23T04:40:26;100122.53;;;7.25;100.00
81509;BME280;70930;52.412;13.554;2024-03-23T04:42:52;100124.31;;;7.32;100.00
81509;BME280;70930;52.412;13.554;2024-03-23T04:45:17;100117.72;;;7.28;100.00
81509;BME280;70930;52.412;13.554;2024-03-23T04:47:42;100110.66;;;7.21;100.00
81509;BME280;70930;52.412;13.554;2024-03-23T04:50:08;100106.88;;;7.23;100.00
81509;BME280;70930;52.412;13.554;2024-03-23T04:52:35;100089.53;;;7.21;99.25
81509;BME280;70930;52.412;13.554;2024-03-23T04:55:01;100101.56;;;7.31;99.46
81509;BME280;70930;52.412;13.554;2024-03-23T04:57:26;100084.72;;;7.32;100.00
81509;BME280;70930;52.412;13.554;2024-03-23T04:59:51;100076.94;;;7.39;98.93
81509;BME280;70930;52.412;13.554;2024-03-23T05:02:17;100062.50;;;7.50;96.80
81509;BME280;70930;52.412;13.554;2024-03-23T05:04:42;100069.47;;;7.43;96.47
81509;BME280;70930;52.412;13.554;2024-03-23T05:07:08;100078.28;;;7.35;97.37
81509;BME280;70930;52.412;13.554;2024-03-23T05:09:33;100072.00;;;7.36;97.83
81509;BME280;70930;52.412;13.554;2024-03-23T05:11:59;100064.38;;;7.41;98.30
81509;BME280;70930;52.412;13.554;2024-03-23T05:14:27;100063.19;;;7.52;97.37
81509;BME280;70930;52.412;13.554;2024-03-23T05:16:53;100056.38;;;7.57;96.43
81509;BME280;70930;52.412;13.554;2024-03-23T05:19:18;100072.97;;;7.43;97.79
81509;BME280;70930;52.412;13.554;2024-03-23T05:21:44;100070.25;;;7.12;98.63
81509;BME280;70930;52.412;13.554;2024-03-23T05:24:10;100068.13;;;7.07;96.74
81509;BME280;70930;52.412;13.554;2024-03-23T05:26:35;100078.47;;;7.17;97.35
81509;BME280;70930;52.412;13.554;2024-03-23T05:29:01;100081.31;;;6.99;97.88
81509;BME280;70930;52.412;13.554;2024-03-23T05:31:29;100074.41;;;6.98;98.14
81509;BME280;70930;52.412;13.554;2024-03-23T05:33:55;100069.13;;;6.98;97.29
81509;BME280;70930;52.412;13.554;2024-03-23T05:36:21;100054.91;;;7.07;98.16
81509;BME280;70930;52.412;13.554;2024-03-23T05:38:47;100044.06;;;6.86;100.00
81509;BME280;70930;52.412;13.554;2024-03-23T05:41:13;100041.63;;;6.60;100.00
81509;BME280;70930;52.412;13.554;2024-03-23T05:43:38;100046.22;;;6.82;100.00
81509;BME280;70930;52.412;13.554;2024-03-23T05:46:04;100047.00;;;6.99;98.78
81509;BME280;70930;52.412;13.554;2024-03-23T05:48:32;100038.13;;;6.76;99.15
81509;BME280;70930;52.412;13.554;2024-03-23T05:50:58;100049.56;;;6.68;100.00
81509;BME280;70930;52.412;13.554;2024-03-23T05:53:24;100041.13;;;6.48;100.00
81509;BME280;70930;52.412;13.554;2024-03-23T05:55:50;100032.41;;;6.48;100.00
81509;BME280;70930;52.412;13.554;2024-03-23T05:58:16;100026.28;;;6.63;100.00
81509;BME280;70930;52.412;13.554;2024-03-23T06:00:43;100026.47;;;6.54;99.92
81509;BME280;70930;52.412;13.554;2024-03-23T06:03:09;100029.41;;;6.67;100.00
81509;BME280;70930;52.412;13.554;2024-03-23T06:05:35;100020.53;;;6.68;99.54
81509;BME280;70930;52.412;13.554;2024-03-23T06:08:00;100016.41;;;6.66;100.00
81509;BME280;70930;52.412;13.554;2024-03-23T06:10:26;100009.97;;;6.60;100.00
81509;BME280;70930;52.412;13.554;2024-03-23T06:12:51;99998.44;;;6.69;100.00
81509;BME280;70930;52.412;13.554;2024-03-23T06:15:20;99986.22;;;6.76;99.41
81509;BME280;70930;52.412;13.554;2024-03-23T06:17:45;99972.63;;;6.87;99.52
81509;BME280;70930;52.412;13.554;2024-03-23T06:20:12;99967.41;;;6.71;100.00
81509;BME280;70930;52.412;13.554;2024-03-23T06:22:37;99970.75;;;6.57;99.68
81509;BME280;70930;52.412;13.554;2024-03-23T06:25:03;99957.06;;;6.53;100.00
81509;BME280;70930;52.412;13.554;2024-03-23T06:27:28;99966.44;;;6.56;100.00
81509;BME280;70930;52.412;13.554;2024-03-23T06:29:54;99976.00;;;6.65;100.00
81509;BME280;70930;52.412;13.554;2024-03-23T06:32:20;99976.84;;;6.66;100.00
81509;BME280;70930;52.412;13.554;2024-03-23T06:34:45;99981.78;;;6.69;100.00
81509;BME280;70930;52.412;13.554;2024-03-23T06:37:11;99973.72;;;6.62;100.00
81509;BME280;70930;52.412;13.554;2024-03-23T06:39:37;99958.38;;;6.57;100.00
81509;BME280;70930;52.412;13.554;2024-03-23T06:42:02;99945.69;;;6.61;99.88
81509;BME280;70930;52.412;13.554;2024-03-23T06:44:28;99952.63;;;6.54;100.00
81509;BME280;70930;52.412;13.554;2024-03-23T06:46:54;99944.00;;;6.60;100.00
81509;BME280;70930;52.412;13.554;2024-03-23T06:49:19;99954.81;;;6.89;100.00
81509;BME280;70930;52.412;13.554;2024-03-23T06:51:45;99957.78;;;6.86;100.00
81509;BME280;70930;52.412;13.554;2024-03-23T06:54:11;99961.00;;;6.66;100.00
81509;BME280;70930;52.412;13.554;2024-03-23T06:56:36;99964.94;;;6.78;98.69
81509;BME280;70930;52.412;13.554;2024-03-23T06:59:01;99951.22;;;6.82;99.81
81509;BME280;70930;52.412;13.554;2024-03-23T07:01:27;99947.94;;;6.80;98.90
81509;BME280;70930;52.412;13.554;2024-03-23T07:03:53;99944.56;;;6.47;100.00
81509;BME280;70930;52.412;13.554;2024-03-23T07:06:19;99939.09;;;6.57;100.00
81509;BME280;70930;52.412;13.554;2024-03-23T07:08:44;99928.06;;;6.53;100.00
81509;BME280;70930;52.412;13.554;2024-03-23T07:11:09;99933.66;;;6.58;100.00
81509;BME280;70930;52.412;13.554;2024-03-23T07:13:35;99919.94;;;6.63;100.00
81509;BME280;70930;52.412;13.554;2024-03-23T07:16:00;99926.19;;;6.70;99.33
81509;BME280;70930;52.412;13.554;2024-03-23T07:18:26;99927.19;;;6.69;98.51
81509;BME280;70930;52.412;13.554;2024-03-23T07:20:57;99930.13;;;6.74;100.00
81509;BME280;70930;52.412;13.554;2024-03-23T07:23:23;99924.06;;;6.66;99.60
81509;BME280;70930;52.412;13.554;2024-03-23T07:25:58;99933.56;;;6.83;99.27
81509;BME280;70930;52.412;13.554;2024-03-23T07:28:23;99927.84;;;6.71;100.00
81509;BME280;70930;52.412;13.554;2024-03-23T07:33:28;99915.56;;;6.86;99.38
81509;BME280;70930;52.412;13.554;2024-03-23T07:35:54;99926.38;;;7.08;98.35
81509;BME280;70930;52.412;13.554;2024-03-23T07:38:19;99920.34;;;6.91;98.36
81509;BME280;70930;52.412;13.554;2024-03-23T07:40:44;99918.44;;;6.77;98.25
81509;BME280;70930;52.412;13.554;2024-03-23T07:43:10;99916.63;;;6.69;98.66
81509;BME280;70930;52.412;13.554;2024-03-23T07:45:36;99910.41;;;6.54;98.44
81509;BME280;70930;52.412;13.554;2024-03-23T07:48:03;99924.25;;;6.56;100.00
81509;BME280;70930;52.412;13.554;2024-03-23T07:50:28;99928.19;;;6.68;99.29
81509;BME280;70930;52.412;13.554;2024-03-23T07:52:54;99910.56;;;6.60;99.34
81509;BME280;70930;52.412;13.554;2024-03-23T07:55:19;99907.75;;;6.62;100.00
81509;BME280;70930;52.412;13.554;2024-03-23T07:57:44;99910.56;;;6.52;100.00
81509;BME280;70930;52.412;13.554;2024-03-23T08:00:10;99901.16;;;6.66;99.53
81509;BME280;70930;52.412;13.554;2024-03-23T08:02:36;99900.03;;;6.52;97.59
81509;BME280;70930;52.412;13.554;2024-03-23T08:05:01;99897.06;;;6.47;98.31
81509;BME280;70930;52.412;13.554;2024-03-23T08:07:26;99902.03;;;6.50;98.90
81509;BME280;70930;52.412;13.554;2024-03-23T08:09:52;99895.41;;;6.54;99.66
81509;BME280;70930;52.412;13.554;2024-03-23T08:12:17;99885.91;;;6.37;99.08
81509;BME280;70930;52.412;13.554;2024-03-23T08:14:46;99888.09;;;6.17;100.00
81509;BME280;70930;52.412;13.554;2024-03-23T08:17:11;99888.09;;;6.09;100.00
81509;BME280;70930;52.412;13.554;2024-03-23T08:19:36;99873.69;;;6.36;100.00
81509;BME280;70930;52.412;13.554;2024-03-23T08:22:02;99886.06;;;6.35;99.67
81509;BME280;70930;52.412;13.554;2024-03-23T08:24:27;99888.75;;;6.11;100.00
81509;BME280;70930;52.412;13.554;2024-03-23T08:26:54;99873.09;;;6.26;100.00
81509;BME280;70930;52.412;13.554;2024-03-23T08:29:19;99879.81;;;6.28;100.00
81509;BME280;70930;52.412;13.554;2024-03-23T08:31:45;99881.00;;;6.26;99.49
81509;BME280;70930;52.412;13.554;2024-03-23T08:34:10;99876.47;;;6.51;99.71
81509;BME280;70930;52.412;13.554;2024-03-23T08:36:35;99866.91;;;6.50;98.56
81509;BME280;70930;52.412;13.554;2024-03-23T08:39:00;99873.56;;;6.37;99.85
81509;BME280;70930;52.412;13.554;2024-03-23T08:41:26;99867.78;;;6.34;99.39
81509;BME280;70930;52.412;13.554;2024-03-23T08:43:51;99875.69;;;6.42;98.98
81509;BME280;70930;52.412;13.554;2024-03-23T08:46:17;99870.09;;;6.21;97.83
81509;BME280;70930;52.412;13.554;2024-03-23T08:48:44;99871.97;;;6.04;99.74
81509;BME280;70930;52.412;13.554;2024-03-23T08:51:11;99876.25;;;5.97;99.21
81509;BME280;70930;52.412;13.554;2024-03-23T08:53:37;99872.59;;;5.81;99.79
81509;BME280;70930;52.412;13.554;2024-03-23T08:56:04;99873.78;;;5.79;99.29
81509;BME280;70930;52.412;13.554;2024-03-23T08:58:30;99879.69;;;5.81;98.27
81509;BME280;70930;52.412;13.554;2024-03-23T09:01:16;99866.03;;;5.77;100.00
81509;BME280;70930;52.412;13.554;2024-03-23T09:03:42;99872.13;;;5.78;99.36
81509;BME280;70930;52.412;13.554;2024-03-23T09:06:09;99884.94;;;5.89;100.00
81509;BME280;70930;52.412;13.554;2024-03-23T09:08:34;99869.47;;;5.70;100.00
81509;BME280;70930;52.412;13.554;2024-03-23T09:11:05;99874.75;;;5.70;100.00
81509;BME280;70930;52.412;13.554;2024-03-23T09:13:32;99879.03;;;5.79;99.79
81509;BME280;70930;52.412;13.554;2024-03-23T09:15:57;99873.78;;;5.62;100.00
81509;BME280;70930;52.412;13.554;2024-03-23T09:18:23;99874.94;;;5.60;100.00
81509;BME280;70930;52.412;13.554;2024-03-23T09:20:49;99874.25;;;5.58;98.73
81509;BME280;70930;52.412;13.554;2024-03-23T09:23:14;99893.03;;;5.55;99.74
81509;BME280;70930;52.412;13.554;2024-03-23T09:25:39;99888.72;;;5.37;99.37
81509;BME280;70930;52.412;13.554;2024-03-23T09:28:06;99883.31;;;5.31;99.25
81509;BME280;70930;52.412;13.554;2024-03-23T09:30:34;99884.44;;;5.36;98.62
81509;BME280;70930;52.412;13.554;2024-03-23T09:32:59;99909.91;;;5.11;99.55
81509;BME280;70930;52.412;13.554;2024-03-23T09:35:25;99885.84;;;4.98;99.61
81509;BME280;70930;52.412;13.554;2024-03-23T09:37:50;99906.66;;;4.83;100.00
81509;BME280;70930;52.412;13.554;2024-03-23T09:40:15;99917.44;;;4.64;99.50
81509;BME280;70930;52.412;13.554;2024-03-23T09:42:41;99924.34;;;4.65;99.99
81509;BME280;70930;52.412;13.554;2024-03-23T09:45:17;99915.97;;;4.70;98.74
81509;BME280;70930;52.412;13.554;2024-03-23T09:47:44;99909.19;;;4.59;99.00
81509;BME280;70930;52.412;13.554;2024-03-23T09:50:12;99936.16;;;4.61;98.56
81509;BME280;70930;52.412;13.554;2024-03-23T09:52:37;99939.34;;;4.73;99.00
81509;BME280;70930;52.412;13.554;2024-03-23T09:55:04;99939.06;;;4.50;100.00
81509;BME280;70930;52.412;13.554;2024-03-23T09:57:29;99966.97;;;4.77;99.29
81509;BME280;70930;52.412;13.554;2024-03-23T09:59:54;99958.88;;;4.70;99.58
81509;BME280;70930;52.412;13.554;2024-03-23T10:02:22;99962.00;;;4.65;99.52
81509;BME280;70930;52.412;13.554;2024-03-23T10:04:47;99975.75;;;4.59;96.99
81509;BME280;70930;52.412;13.554;2024-03-23T10:07:15;99987.56;;;4.55;97.70
81509;BME280;70930;52.412;13.554;2024-03-23T10:09:42;99990.81;;;4.49;97.64
81509;BME280;70930;52.412;13.554;2024-03-23T10:12:11;99977.72;;;4.57;96.52
81509;BME280;70930;52.412;13.554;2024-03-23T10:14:39;99996.53;;;4.71;98.11
81509;BME280;70930;52.412;13.554;2024-03-23T10:17:20;99986.38;;;4.76;97.83
81509;BME280;70930;52.412;13.554;2024-03-23T10:19:50;99984.75;;;4.49;97.35
81509;BME280;70930;52.412;13.554;2024-03-23T10:22:21;99990.13;;;4.21;96.81
81509;BME280;70930;52.412;13.554;2024-03-23T10:24:47;100000.00;;;4.27;98.00
81509;BME280;70930;52.412;13.554;2024-03-23T10:27:20;99994.84;;;4.17;96.90
81509;BME280;70930;52.412;13.554;2024-03-23T10:29:49;99992.28;;;4.26;95.67
81509;BME280;70930;52.412;13.554;2024-03-23T10:32:16;99999.19;;;4.27;95.91
81509;BME280;70930;52.412;13.554;2024-03-23T10:34:42;100010.91;;;4.32;96.20
81509;BME280;70930;52.412;13.554;2024-03-23T10:37:08;100013.09;;;4.19;96.80
81509;BME280;70930;52.412;13.554;2024-03-23T10:39:35;100022.97;;;4.43;97.66
81509;BME280;70930;52.412;13.554;2024-03-23T10:42:08;100019.28;;;4.36;94.76
81509;BME280;70930;52.412;13.554;2024-03-23T10:44:35;100029.09;;;4.26;96.04
81509;BME280;70930;52.412;13.554;2024-03-23T10:47:02;100021.09;;;4.35;96.99
81509;BME280;70930;52.412;13.554;2024-03-23T10:49:31;100025.28;;;4.46;97.17
81509;BME280;70930;52.412;13.554;2024-03-23T10:52:01;100021.16;;;4.43;97.97
81509;BME280;70930;52.412;13.554;2024-03-23T10:54:27;100017.63;;;4.53;97.62
81509;BME280;70930;52.412;13.554;2024-03-23T10:57:14;100044.22;;;4.50;93.17
81509;BME280;70930;52.412;13.554;2024-03-23T10:59:40;100040.44;;;3.90;94.75
81509;BME280;70930;52.412;13.554;2024-03-23T11:02:05;100042.69;;;4.21;96.64
81509;BME280;70930;52.412;13.554;2024-03-23T11:04:37;100051.53;;;4.38;96.69
81509;BME280;70930;52.412;13.554;2024-03-23T11:09:52;100048.09;;;4.89;96.55
81509;BME280;70930;52.412;13.554;2024-03-23T11:15:12;100041.09;;;4.72;94.31
81509;BME280;70930;52.412;13.554;2024-03-23T11:17:38;100043.88;;;4.97;95.95
81509;BME280;70930;52.412;13.554;2024-03-23T11:20:05;100058.41;;;4.83;93.97
81509;BME280;70930;52.412;13.554;2024-03-23T11:25:24;100047.63;;;4.94;96.43
81509;BME280;70930;52.412;13.554;2024-03-23T11:27:52;100053.09;;;5.01;95.28
81509;BME280;70930;52.412;13.554;2024-03-23T11:30:25;100056.06;;;5.06;94.01
81509;BME280;70930;52.412;13.554;2024-03-23T11:32:54;100051.34;;;5.09;92.77
81509;BME280;70930;52.412;13.554;2024-03-23T11:35:37;100032.81;;;5.19;95.06
81509;BME280;70930;52.412;13.554;2024-03-23T11:38:03;100059.84;;;5.37;94.22
81509;BME280;70930;52.412;13.554;2024-03-23T11:40:29;100053.56;;;5.30;93.35
81509;BME280;70930;52.412;13.554;2024-03-23T11:42:56;100059.50;;;5.32;91.20
81509;BME280;70930;52.412;13.554;2024-03-23T11:45:21;100061.91;;;5.60;94.13
81509;BME280;70930;52.412;13.554;2024-03-23T11:47:46;100069.84;;;5.68;92.11
81509;BME280;70930;52.412;13.554;2024-03-23T11:50:19;100073.34;;;5.85;91.78
81509;BME280;70930;52.412;13.554;2024-03-23T11:52:44;100075.84;;;5.86;92.55
81509;BME280;70930;52.412;13.554;2024-03-23T11:55:10;100077.31;;;5.89;91.26
81509;BME280;70930;52.412;13.554;2024-03-23T11:57:35;100074.34;;;5.84;90.90
81509;BME280;70930;52.412;13.554;2024-03-23T12:00:00;100074.91;;;6.04;91.59
81509;BME280;70930;52.412;13.554;2024-03-23T12:02:26;100062.22;;;6.07;90.90
81509;BME280;70930;52.412;13.554;2024-03-23T12:04:51;100053.31;;;6.17;90.03
81509;BME280;70930;52.412;13.554;2024-03-23T12:07:19;100055.31;;;6.23;89.43
81509;BME280;70930;52.412;13.554;2024-03-23T12:09:46;100054.16;;;6.58;90.80
81509;BME280;70930;52.412;13.554;2024-03-23T12:12:16;100037.03;;;6.46;87.82
81509;BME280;70930;52.412;13.554;2024-03-23T12:15:01;100049.22;;;6.55;88.59
81509;BME280;70930;52.412;13.554;2024-03-23T12:17:26;100067.88;;;6.29;87.49
81509;BME280;70930;52.412;13.554;2024-03-23T12:19:52;100055.31;;;6.23;89.21
81509;BME280;70930;52.412;13.554;2024-03-23T12:22:21;100063.72;;;6.26;89.28
81509;BME280;70930;52.412;13.554;2024-03-23T12:24:47;100050.72;;;6.33;89.90
81509;BME280;70930;52.412;13.554;2024-03-23T12:27:12;100044.78;;;6.39;91.31
81509;BME280;70930;52.412;13.554;2024-03-23T12:29:37;100050.38;;;6.44;89.30
81509;BME280;70930;52.412;13.554;2024-03-23T12:32:04;100045.09;;;6.28;88.49
81509;BME280;70930;52.412;13.554;2024-03-23T12:34:30;100056.16;;;6.31;88.71
81509;BME280;70930;52.412;13.554;2024-03-23T12:36:56;100057.97;;;6.31;88.05
81509;BME280;70930;52.412;13.554;2024-03-23T12:39:21;100055.16;;;6.24;89.40
81509;BME280;70930;52.412;13.554;2024-03-23T12:41:47;100064.38;;;6.28;92.09
81509;BME280;70930;52.412;13.554;2024-03-23T12:44:13;100054.31;;;6.07;90.67
81509;BME280;70930;52.412;13.554;2024-03-23T12:46:41;100064.38;;;6.12;90.03
81509;BME280;70930;52.412;13.554;2024-03-23T12:49:06;100057.44;;;6.11;89.14
81509;BME280;70930;52.412;13.554;2024-03-23T12:51:32;100049.38;;;6.12;90.98
81509;BME280;70930;52.412;13.554;2024-03-23T12:53:57;100046.28;;;6.17;89.79
81509;BME280;70930;52.412;13.554;2024-03-23T12:56:23;100049.72;;;6.26;92.06
81509;BME280;70930;52.412;13.554;2024-03-23T12:58:48;100049.88;;;6.24;91.16
81509;BME280;70930;52.412;13.554;2024-03-23T13:01:17;100039.81;;;6.20;91.40
81509;BME280;70930;52.412;13.554;2024-03-23T13:03:42;100041.00;;;6.50;92.86
81509;BME280;70930;52.412;13.554;2024-03-23T13:06:10;100031.44;;;6.41;89.90
81509;BME280;70930;52.412;13.554;2024-03-23T13:08:35;100043.78;;;6.40;91.56
81509;BME280;70930;52.412;13.554;2024-03-23T13:11:01;100040.50;;;6.22;90.45
81509;BME280;70930;52.412;13.554;2024-03-23T13:13:26;100037.88;;;6.30;92.85
81509;BME280;70930;52.412;13.554;2024-03-23T13:15:52;100039.34;;;6.57;92.46
81509;BME280;70930;52.412;13.554;2024-03-23T13:18:17;100032.75;;;6.53;92.20
81509;BME280;70930;52.412;13.554;2024-03-23T13:20:42;100025.47;;;6.63;92.61
81509;BME280;70930;52.412;13.554;2024-03-23T13:23:08;100033.72;;;6.68;90.15
81509;BME280;70930;52.412;13.554;2024-03-23T13:25:34;100030.69;;;6.87;88.88
81509;BME280;70930;52.412;13.554;2024-03-23T13:27:59;100034.06;;;7.21;88.88
81509;BME280;70930;52.412;13.554;2024-03-23T13:30:26;100032.69;;;7.72;87.33
81509;BME280;70930;52.412;13.554;2024-03-23T13:32:51;100033.25;;;7.91;87.37
81509;BME280;70930;52.412;13.554;2024-03-23T13:35:17;100028.47;;;7.86;86.35
81509;BME280;70930;52.412;13.554;2024-03-23T13:37:42;100043.03;;;8.05;85.26
81509;BME280;70930;52.412;13.554;2024-03-23T13:40:08;100034.38;;;8.42;85.26
81509;BME280;70930;52.412;13.554;2024-03-23T13:42:34;100022.16;;;8.41;80.37
81509;BME280;70930;52.412;13.554;2024-03-23T13:44:59;100018.69;;;8.55;77.79
81509;BME280;70930;52.412;13.554;2024-03-23T13:47:25;100022.84;;;8.73;80.81
81509;BME280;70930;52.412;13.554;2024-03-23T13:49:50;100018.47;;;8.65;77.69
81509;BME280;70930;52.412;13.554;2024-03-23T13:52:16;100029.47;;;8.54;76.66